N121PF SBJD-SBRJ
Flight info
| Callsign | N121PF |
|---|---|
| Flight time | 1h 33m |
| Altitude | 12000 |
| Route | UGIKI1C NIBRU UZ171 KEVUN ASALU1B |
| Aircraft | DA62/L-VGDW/C |
Departure
| Time | 2026-05-03 22:34 |
|---|---|
| Airport | Comte. Rolim Adolfo Amaro–Jundiaí State Airport (SBJD) |
Arrival
| Time | 2026-05-04 00:07 |
|---|---|
| Airport | Santos Dumont Airport (SBRJ) |
| Time | Latitude | Longitude | Altitude | Speed | Heading |
|---|---|---|---|---|---|
| 2026-05-03 22:13 | -23.18162 | -46.94201 | 2453 ft | 0 kts | 264° |
| 2026-05-03 22:26 | -23.18162 | -46.94202 | 2457 ft | 1 kts | 260° |
| 2026-05-03 22:26 | -23.18164 | -46.94208 | 2456 ft | 0 kts | 245° |
| 2026-05-03 22:27 | -23.18165 | -46.94210 | 2455 ft | 2 kts | 239° |
| 2026-05-03 22:27 | -23.18175 | -46.94244 | 2457 ft | 6 kts | 278° |
| 2026-05-03 22:27 | -23.18125 | -46.94273 | 2452 ft | 11 kts | 334° |
| 2026-05-03 22:28 | -23.18044 | -46.94313 | 2456 ft | 15 kts | 336° |
| 2026-05-03 22:28 | -23.17939 | -46.94361 | 2444 ft | 18 kts | 336° |
| 2026-05-03 22:28 | -23.17816 | -46.94418 | 2439 ft | 20 kts | 340° |
| 2026-05-03 22:28 | -23.17754 | -46.94448 | 2437 ft | 9 kts | 332° |
| 2026-05-03 22:29 | -23.17687 | -46.94480 | 2434 ft | 12 kts | 336° |
| 2026-05-03 22:29 | -23.17595 | -46.94519 | 2429 ft | 16 kts | 336° |
| 2026-05-03 22:29 | -23.17508 | -46.94560 | 2427 ft | 4 kts | 322° |
| 2026-05-03 22:29 | -23.17488 | -46.94585 | 2426 ft | 0 kts | 289° |
| 2026-05-03 22:32 | -23.17487 | -46.94590 | 2426 ft | 3 kts | 284° |
| 2026-05-03 22:32 | -23.17486 | -46.94625 | 2427 ft | 5 kts | 251° |
| 2026-05-03 22:32 | -23.17507 | -46.94650 | 2426 ft | 4 kts | 200° |
| 2026-05-03 22:33 | -23.17538 | -46.94642 | 2428 ft | 14 kts | 156° |
| 2026-05-03 22:33 | -23.17823 | -46.94512 | 2438 ft | 70 kts | 157° |
| 2026-05-03 22:33 | -23.18345 | -46.94281 | 2567 ft | 84 kts | 156° |
| 2026-05-03 22:33 | -23.18859 | -46.94014 | 2836 ft | 82 kts | 144° |
| 2026-05-03 22:34 | -23.19135 | -46.93521 | 3116 ft | 80 kts | 101° |
| 2026-05-03 22:34 | -23.19380 | -46.92988 | 3385 ft | 84 kts | 101° |
| 2026-05-03 22:34 | -23.19464 | -46.92337 | 3679 ft | 89 kts | 105° |
| 2026-05-03 22:34 | -23.19591 | -46.91632 | 3906 ft | 103 kts | 105° |
| 2026-05-03 22:35 | -23.19750 | -46.90826 | 4098 ft | 115 kts | 105° |
| 2026-05-03 22:35 | -23.19924 | -46.89980 | 4298 ft | 117 kts | 106° |
| 2026-05-03 22:35 | -23.20111 | -46.89104 | 4498 ft | 121 kts | 107° |
| 2026-05-03 22:35 | -23.20300 | -46.88220 | 4695 ft | 119 kts | 107° |
| 2026-05-03 22:36 | -23.20485 | -46.87365 | 4896 ft | 113 kts | 107° |
| 2026-05-03 22:36 | -23.20615 | -46.86540 | 5087 ft | 111 kts | 89° |
| 2026-05-03 22:36 | -23.20323 | -46.85782 | 5280 ft | 112 kts | 53° |
| 2026-05-03 22:36 | -23.19649 | -46.85355 | 5476 ft | 114 kts | 11° |
| 2026-05-03 22:37 | -23.18890 | -46.85465 | 5668 ft | 108 kts | 330° |
| 2026-05-03 22:37 | -23.18376 | -46.85996 | 5862 ft | 99 kts | 293° |
| 2026-05-03 22:37 | -23.18219 | -46.86672 | 6062 ft | 90 kts | 269° |
| 2026-05-03 22:37 | -23.18151 | -46.87381 | 6193 ft | 100 kts | 272° |
| 2026-05-03 22:38 | -23.18078 | -46.88174 | 6322 ft | 110 kts | 271° |
| 2026-05-03 22:38 | -23.18000 | -46.89028 | 6454 ft | 117 kts | 272° |
| 2026-05-03 22:38 | -23.17919 | -46.89936 | 6576 ft | 123 kts | 272° |
| 2026-05-03 22:38 | -23.17834 | -46.90882 | 6700 ft | 128 kts | 272° |
| 2026-05-03 22:39 | -23.17746 | -46.91869 | 6816 ft | 134 kts | 272° |
| 2026-05-03 22:39 | -23.17655 | -46.92889 | 6930 ft | 137 kts | 272° |
| 2026-05-03 22:39 | -23.17575 | -46.93917 | 7046 ft | 139 kts | 266° |
| 2026-05-03 22:39 | -23.17831 | -46.94916 | 7168 ft | 139 kts | 239° |
| 2026-05-03 22:40 | -23.18459 | -46.95717 | 7286 ft | 141 kts | 223° |
| 2026-05-03 22:40 | -23.19159 | -46.96476 | 7406 ft | 143 kts | 224° |
| 2026-05-03 22:40 | -23.19866 | -46.97250 | 7527 ft | 145 kts | 224° |
| 2026-05-03 22:40 | -23.20579 | -46.98029 | 7641 ft | 146 kts | 224° |
| 2026-05-03 22:41 | -23.21296 | -46.98813 | 7765 ft | 146 kts | 224° |
| 2026-05-03 22:41 | -23.22006 | -46.99589 | 7884 ft | 147 kts | 224° |
| 2026-05-03 22:41 | -23.22800 | -47.00277 | 8006 ft | 146 kts | 206° |
| 2026-05-03 22:41 | -23.23781 | -47.00560 | 8126 ft | 147 kts | 185° |
| 2026-05-03 22:42 | -23.24792 | -47.00395 | 8265 ft | 148 kts | 162° |
| 2026-05-03 22:42 | -23.25657 | -46.99805 | 8435 ft | 148 kts | 140° |
| 2026-05-03 22:42 | -23.26379 | -46.99018 | 8611 ft | 146 kts | 139° |
| 2026-05-03 22:42 | -23.27101 | -46.98246 | 8789 ft | 145 kts | 139° |
| 2026-05-03 22:43 | -23.27820 | -46.97474 | 8962 ft | 146 kts | 140° |
| 2026-05-03 22:43 | -23.28534 | -46.96706 | 9137 ft | 146 kts | 140° |
| 2026-05-03 22:43 | -23.29258 | -46.95927 | 9312 ft | 146 kts | 140° |
| 2026-05-03 22:43 | -23.29976 | -46.95152 | 9490 ft | 145 kts | 140° |
| 2026-05-03 22:44 | -23.30692 | -46.94381 | 9671 ft | 144 kts | 140° |
| 2026-05-03 22:44 | -23.31404 | -46.93614 | 9854 ft | 144 kts | 140° |
| 2026-05-03 22:44 | -23.32115 | -46.92848 | 10034 ft | 144 kts | 140° |
| 2026-05-03 22:44 | -23.32793 | -46.92046 | 10203 ft | 146 kts | 128° |
| 2026-05-03 22:45 | -23.33242 | -46.91202 | 10346 ft | 147 kts | 125° |
| 2026-05-03 22:45 | -23.33762 | -46.90245 | 10509 ft | 147 kts | 126° |
| 2026-05-03 22:45 | -23.34286 | -46.89284 | 10683 ft | 147 kts | 126° |
| 2026-05-03 22:45 | -23.34631 | -46.88649 | 10783 ft | 147 kts | 126° |
| 2026-05-03 22:46 | -23.35022 | -46.87928 | 10909 ft | 147 kts | 126° |
| 2026-05-03 22:46 | -23.35543 | -46.86967 | 11077 ft | 148 kts | 126° |
| 2026-05-03 22:46 | -23.36071 | -46.85997 | 11242 ft | 150 kts | 126° |
| 2026-05-03 22:47 | -23.36591 | -46.85036 | 11406 ft | 149 kts | 126° |
| 2026-05-03 22:47 | -23.37120 | -46.84061 | 11578 ft | 150 kts | 126° |
| 2026-05-03 22:47 | -23.37651 | -46.83083 | 11745 ft | 151 kts | 126° |
| 2026-05-03 22:47 | -23.38183 | -46.82101 | 11919 ft | 151 kts | 125° |
| 2026-05-03 22:48 | -23.38715 | -46.81120 | 12089 ft | 150 kts | 126° |
| 2026-05-03 22:48 | -23.39248 | -46.80137 | 12262 ft | 152 kts | 126° |
| 2026-05-03 22:48 | -23.39786 | -46.79143 | 12436 ft | 153 kts | 126° |
| 2026-05-03 22:48 | -23.40327 | -46.78146 | 12611 ft | 153 kts | 126° |
| 2026-05-03 22:49 | -23.40869 | -46.77145 | 12784 ft | 154 kts | 126° |
| 2026-05-03 22:49 | -23.41415 | -46.76137 | 12959 ft | 155 kts | 126° |
| 2026-05-03 22:49 | -23.41954 | -46.75141 | 13134 ft | 155 kts | 126° |
| 2026-05-03 22:49 | -23.42503 | -46.74127 | 13310 ft | 155 kts | 126° |
| 2026-05-03 22:50 | -23.43053 | -46.73111 | 13487 ft | 157 kts | 126° |
| 2026-05-03 22:50 | -23.43607 | -46.72088 | 13668 ft | 157 kts | 126° |
| 2026-05-03 22:50 | -23.44164 | -46.71059 | 13851 ft | 158 kts | 126° |
| 2026-05-03 22:50 | -23.44722 | -46.70026 | 14033 ft | 158 kts | 125° |
| 2026-05-03 22:51 | -23.45281 | -46.68992 | 14192 ft | 159 kts | 126° |
| 2026-05-03 22:51 | -23.45837 | -46.67965 | 14347 ft | 160 kts | 126° |
| 2026-05-03 22:51 | -23.46401 | -46.66920 | 14505 ft | 160 kts | 126° |
| 2026-05-03 22:51 | -23.46969 | -46.65870 | 14669 ft | 162 kts | 126° |
| 2026-05-03 22:52 | -23.47541 | -46.64812 | 14829 ft | 162 kts | 126° |
| 2026-05-03 22:52 | -23.48065 | -46.63841 | 14976 ft | 163 kts | 126° |
| 2026-05-03 22:52 | -23.48639 | -46.62778 | 15139 ft | 163 kts | 126° |
| 2026-05-03 22:52 | -23.49218 | -46.61706 | 15304 ft | 164 kts | 126° |
| 2026-05-03 22:53 | -23.49799 | -46.60632 | 15468 ft | 165 kts | 126° |
| 2026-05-03 22:53 | -23.50381 | -46.59552 | 15633 ft | 166 kts | 126° |
| 2026-05-03 22:53 | -23.50967 | -46.58467 | 15797 ft | 166 kts | 126° |
| 2026-05-03 22:53 | -23.51545 | -46.57395 | 15962 ft | 167 kts | 126° |
| 2026-05-03 22:54 | -23.52133 | -46.56305 | 16129 ft | 167 kts | 127° |
| 2026-05-03 22:54 | -23.52723 | -46.55211 | 16301 ft | 168 kts | 127° |
| 2026-05-03 22:54 | -23.53317 | -46.54111 | 16468 ft | 169 kts | 127° |
| 2026-05-03 22:54 | -23.53912 | -46.53008 | 16642 ft | 169 kts | 127° |
| 2026-05-03 22:55 | -23.54514 | -46.51899 | 16809 ft | 171 kts | 127° |
| 2026-05-03 22:55 | -23.55120 | -46.50781 | 16981 ft | 172 kts | 127° |
| 2026-05-03 22:55 | -23.55737 | -46.49645 | 17063 ft | 180 kts | 127° |
| 2026-05-03 22:55 | -23.56393 | -46.48437 | 17066 ft | 190 kts | 126° |
| 2026-05-03 22:56 | -23.57071 | -46.47185 | 17067 ft | 198 kts | 126° |
| 2026-05-03 22:56 | -23.57792 | -46.45850 | 17068 ft | 205 kts | 126° |
| 2026-05-03 22:56 | -23.58515 | -46.44512 | 17065 ft | 210 kts | 126° |
| 2026-05-03 22:56 | -23.59158 | -46.43067 | 17067 ft | 215 kts | 109° |
| 2026-05-03 22:57 | -23.59325 | -46.41449 | 17068 ft | 216 kts | 89° |
| 2026-05-03 22:57 | -23.59286 | -46.39814 | 17068 ft | 216 kts | 89° |
| 2026-05-03 22:57 | -23.59253 | -46.38179 | 17066 ft | 216 kts | 89° |
| 2026-05-03 22:57 | -23.59224 | -46.36544 | 17062 ft | 215 kts | 89° |
| 2026-05-03 22:58 | -23.59195 | -46.34912 | 17061 ft | 215 kts | 89° |
| 2026-05-03 22:58 | -23.59165 | -46.33289 | 17062 ft | 215 kts | 89° |
| 2026-05-03 22:58 | -23.59133 | -46.31653 | 17059 ft | 215 kts | 89° |
| 2026-05-03 22:58 | -23.59102 | -46.30022 | 17062 ft | 215 kts | 89° |
| 2026-05-03 22:59 | -23.59072 | -46.28392 | 17054 ft | 215 kts | 89° |
| 2026-05-03 22:59 | -23.59041 | -46.26788 | 17054 ft | 214 kts | 89° |
| 2026-05-03 22:59 | -23.59010 | -46.25163 | 17055 ft | 215 kts | 89° |
| 2026-05-03 22:59 | -23.58978 | -46.23537 | 17051 ft | 215 kts | 89° |
| 2026-05-03 23:00 | -23.58947 | -46.21910 | 17051 ft | 214 kts | 89° |
| 2026-05-03 23:00 | -23.58915 | -46.20286 | 17050 ft | 214 kts | 89° |
| 2026-05-03 23:00 | -23.58883 | -46.18659 | 17049 ft | 215 kts | 89° |
| 2026-05-03 23:00 | -23.58851 | -46.17032 | 17050 ft | 215 kts | 89° |
| 2026-05-03 23:01 | -23.58819 | -46.15399 | 17045 ft | 216 kts | 89° |
| 2026-05-03 23:01 | -23.58786 | -46.13764 | 17043 ft | 216 kts | 89° |
| 2026-05-03 23:01 | -23.58753 | -46.12127 | 17042 ft | 215 kts | 89° |
| 2026-05-03 23:01 | -23.58721 | -46.10519 | 17042 ft | 215 kts | 89° |
| 2026-05-03 23:02 | -23.58688 | -46.08889 | 17039 ft | 215 kts | 89° |
| 2026-05-03 23:02 | -23.58655 | -46.07258 | 17038 ft | 215 kts | 89° |
| 2026-05-03 23:02 | -23.58621 | -46.05630 | 17038 ft | 215 kts | 89° |
| 2026-05-03 23:02 | -23.58589 | -46.03999 | 17038 ft | 215 kts | 89° |
| 2026-05-03 23:03 | -23.58554 | -46.02372 | 17035 ft | 215 kts | 89° |
| 2026-05-03 23:03 | -23.58520 | -46.00745 | 17038 ft | 215 kts | 89° |
| 2026-05-03 23:03 | -23.58487 | -45.99116 | 17034 ft | 215 kts | 89° |
| 2026-05-03 23:03 | -23.58453 | -45.97512 | 17035 ft | 215 kts | 89° |
| 2026-05-03 23:04 | -23.58419 | -45.95888 | 17035 ft | 214 kts | 89° |
| 2026-05-03 23:04 | -23.58384 | -45.94263 | 17039 ft | 214 kts | 89° |
| 2026-05-03 23:04 | -23.58350 | -45.92639 | 17041 ft | 215 kts | 89° |
| 2026-05-03 23:04 | -23.58315 | -45.91012 | 17039 ft | 215 kts | 89° |
| 2026-05-03 23:05 | -23.58280 | -45.89383 | 17040 ft | 216 kts | 89° |
| 2026-05-03 23:05 | -23.58244 | -45.87742 | 17040 ft | 217 kts | 89° |
| 2026-05-03 23:05 | -23.58209 | -45.86092 | 17040 ft | 218 kts | 88° |
| 2026-05-03 23:05 | -23.58173 | -45.84455 | 17036 ft | 219 kts | 89° |
| 2026-05-03 23:06 | -23.58137 | -45.82802 | 17040 ft | 217 kts | 89° |
| 2026-05-03 23:06 | -23.58101 | -45.81158 | 17038 ft | 217 kts | 89° |
| 2026-05-03 23:06 | -23.58064 | -45.79520 | 17040 ft | 216 kts | 89° |
| 2026-05-03 23:06 | -23.58028 | -45.77884 | 17037 ft | 216 kts | 89° |
| 2026-05-03 23:07 | -23.57991 | -45.76249 | 17043 ft | 216 kts | 89° |
| 2026-05-03 23:07 | -23.57955 | -45.74609 | 17045 ft | 217 kts | 89° |
| 2026-05-03 23:07 | -23.57918 | -45.72965 | 17042 ft | 217 kts | 89° |
| 2026-05-03 23:07 | -23.57880 | -45.71322 | 17040 ft | 216 kts | 89° |
| 2026-05-03 23:08 | -23.57843 | -45.69685 | 17044 ft | 215 kts | 89° |
| 2026-05-03 23:08 | -23.57806 | -45.68052 | 17048 ft | 215 kts | 89° |
| 2026-05-03 23:08 | -23.57769 | -45.66441 | 17043 ft | 215 kts | 89° |
| 2026-05-03 23:08 | -23.57731 | -45.64810 | 17044 ft | 215 kts | 89° |
| 2026-05-03 23:09 | -23.57694 | -45.63179 | 17041 ft | 215 kts | 88° |
| 2026-05-03 23:09 | -23.57655 | -45.61552 | 17045 ft | 215 kts | 89° |
| 2026-05-03 23:09 | -23.57617 | -45.59926 | 17047 ft | 214 kts | 88° |
| 2026-05-03 23:09 | -23.57579 | -45.58302 | 17046 ft | 214 kts | 89° |
| 2026-05-03 23:10 | -23.57541 | -45.56677 | 17047 ft | 215 kts | 88° |
| 2026-05-03 23:10 | -23.57502 | -45.55051 | 17050 ft | 215 kts | 88° |
| 2026-05-03 23:10 | -23.57464 | -45.53448 | 17049 ft | 214 kts | 88° |
| 2026-05-03 23:10 | -23.57425 | -45.51825 | 17050 ft | 214 kts | 89° |
| 2026-05-03 23:11 | -23.57387 | -45.50201 | 17050 ft | 215 kts | 88° |
| 2026-05-03 23:11 | -23.57347 | -45.48570 | 17051 ft | 215 kts | 89° |
| 2026-05-03 23:11 | -23.57294 | -45.46938 | 17051 ft | 216 kts | 83° |
| 2026-05-03 23:11 | -23.56984 | -45.45347 | 17048 ft | 214 kts | 75° |
| 2026-05-03 23:12 | -23.56644 | -45.43767 | 17051 ft | 214 kts | 75° |
| 2026-05-03 23:12 | -23.56312 | -45.42190 | 17051 ft | 213 kts | 75° |
| 2026-05-03 23:12 | -23.55984 | -45.40635 | 17053 ft | 213 kts | 75° |
| 2026-05-03 23:12 | -23.55651 | -45.39060 | 17051 ft | 214 kts | 75° |
| 2026-05-03 23:13 | -23.55316 | -45.37479 | 17056 ft | 215 kts | 75° |
| 2026-05-03 23:13 | -23.54980 | -45.35891 | 17052 ft | 215 kts | 75° |
| 2026-05-03 23:13 | -23.54643 | -45.34303 | 17049 ft | 214 kts | 76° |
| 2026-05-03 23:13 | -23.54309 | -45.32726 | 17049 ft | 213 kts | 76° |
| 2026-05-03 23:14 | -23.53975 | -45.31149 | 17052 ft | 214 kts | 75° |
| 2026-05-03 23:14 | -23.53640 | -45.29569 | 17054 ft | 214 kts | 75° |
| 2026-05-03 23:14 | -23.53307 | -45.28002 | 17057 ft | 215 kts | 75° |
| 2026-05-03 23:14 | -23.52970 | -45.26412 | 17044 ft | 215 kts | 75° |
| 2026-05-03 23:15 | -23.52634 | -45.24833 | 17051 ft | 213 kts | 75° |
| 2026-05-03 23:15 | -23.52299 | -45.23258 | 17052 ft | 213 kts | 75° |
| 2026-05-03 23:15 | -23.51964 | -45.21684 | 17053 ft | 213 kts | 75° |
| 2026-05-03 23:15 | -23.51630 | -45.20111 | 17053 ft | 213 kts | 75° |
| 2026-05-03 23:16 | -23.51293 | -45.18533 | 17053 ft | 215 kts | 75° |
| 2026-05-03 23:16 | -23.50956 | -45.16949 | 17048 ft | 214 kts | 75° |
| 2026-05-03 23:16 | -23.50620 | -45.15371 | 17049 ft | 214 kts | 75° |
| 2026-05-03 23:16 | -23.50288 | -45.13817 | 17048 ft | 213 kts | 75° |
| 2026-05-03 23:17 | -23.49953 | -45.12246 | 17051 ft | 213 kts | 75° |
| 2026-05-03 23:17 | -23.49618 | -45.10678 | 17052 ft | 212 kts | 75° |
| 2026-05-03 23:17 | -23.49284 | -45.09114 | 17051 ft | 212 kts | 75° |
| 2026-05-03 23:17 | -23.48950 | -45.07549 | 17051 ft | 212 kts | 75° |
| 2026-05-03 23:18 | -23.48615 | -45.05984 | 17049 ft | 212 kts | 75° |
| 2026-05-03 23:18 | -23.48280 | -45.04420 | 17048 ft | 212 kts | 75° |
| 2026-05-03 23:18 | -23.47950 | -45.02875 | 17049 ft | 212 kts | 75° |
| 2026-05-03 23:18 | -23.47615 | -45.01312 | 17048 ft | 212 kts | 75° |
| 2026-05-03 23:19 | -23.47279 | -44.99752 | 17047 ft | 212 kts | 75° |
| 2026-05-03 23:19 | -23.46946 | -44.98192 | 17046 ft | 211 kts | 75° |
| 2026-05-03 23:19 | -23.46612 | -44.96631 | 17048 ft | 212 kts | 75° |
| 2026-05-03 23:19 | -23.46268 | -44.95071 | 17044 ft | 212 kts | 72° |
| 2026-05-03 23:20 | -23.45805 | -44.93551 | 17046 ft | 211 kts | 69° |
| 2026-05-03 23:20 | -23.45500 | -44.92545 | 17046 ft | 211 kts | 70° |
| 2026-05-03 23:20 | -23.44892 | -44.90523 | 16986 ft | 215 kts | 70° |
| 2026-05-03 23:20 | -23.44419 | -44.88959 | 16881 ft | 220 kts | 70° |
| 2026-05-03 23:21 | -23.43935 | -44.87358 | 16782 ft | 223 kts | 70° |
| 2026-05-03 23:21 | -23.43676 | -44.85696 | 16682 ft | 225 kts | 94° |
| 2026-05-03 23:21 | -23.43787 | -44.83992 | 16588 ft | 226 kts | 92° |
| 2026-05-03 23:21 | -23.43714 | -44.82860 | 16521 ft | 227 kts | 81° |
| 2026-05-03 23:22 | -23.42801 | -44.78970 | 16296 ft | 227 kts | 75° |
| 2026-05-03 23:22 | -23.42558 | -44.77865 | 16231 ft | 227 kts | 75° |
| 2026-05-03 23:22 | -23.42057 | -44.75658 | 16099 ft | 226 kts | 75° |
| 2026-05-03 23:23 | -23.41679 | -44.73997 | 16008 ft | 226 kts | 75° |
| 2026-05-03 23:23 | -23.41305 | -44.72337 | 15911 ft | 225 kts | 75° |
| 2026-05-03 23:23 | -23.41053 | -44.71216 | 15847 ft | 225 kts | 75° |
| 2026-05-03 23:23 | -23.40559 | -44.69028 | 15725 ft | 224 kts | 75° |
| 2026-05-03 23:24 | -23.40313 | -44.67938 | 15659 ft | 224 kts | 75° |
| 2026-05-03 23:24 | -23.39955 | -44.66355 | 15565 ft | 223 kts | 75° |
| 2026-05-03 23:24 | -23.39584 | -44.64716 | 15469 ft | 223 kts | 75° |
| 2026-05-03 23:24 | -23.39215 | -44.63082 | 15375 ft | 222 kts | 76° |
| 2026-05-03 23:25 | -23.38727 | -44.60929 | 15255 ft | 221 kts | 76° |
| 2026-05-03 23:25 | -23.38360 | -44.59310 | 15163 ft | 221 kts | 76° |
| 2026-05-03 23:25 | -23.37993 | -44.57689 | 15068 ft | 220 kts | 76° |
| 2026-05-03 23:25 | -23.37628 | -44.56080 | 14972 ft | 219 kts | 76° |
| 2026-05-03 23:26 | -23.37387 | -44.55015 | 14913 ft | 218 kts | 76° |
| 2026-05-03 23:26 | -23.37023 | -44.53416 | 14823 ft | 217 kts | 76° |
| 2026-05-03 23:26 | -23.36662 | -44.51822 | 14729 ft | 217 kts | 76° |
| 2026-05-03 23:26 | -23.36301 | -44.50233 | 14634 ft | 216 kts | 76° |
| 2026-05-03 23:27 | -23.35941 | -44.48653 | 14562 ft | 214 kts | 76° |
| 2026-05-03 23:27 | -23.35585 | -44.47086 | 14493 ft | 213 kts | 76° |
| 2026-05-03 23:27 | -23.35231 | -44.45527 | 14426 ft | 211 kts | 76° |
| 2026-05-03 23:27 | -23.34878 | -44.43980 | 14356 ft | 210 kts | 76° |
| 2026-05-03 23:28 | -23.34528 | -44.42458 | 14290 ft | 210 kts | 74° |
| 2026-05-03 23:28 | -23.33962 | -44.41005 | 14224 ft | 208 kts | 63° |
| 2026-05-03 23:28 | -23.33344 | -44.39585 | 14152 ft | 208 kts | 64° |
| 2026-05-03 23:28 | -23.32733 | -44.38160 | 14082 ft | 207 kts | 64° |
| 2026-05-03 23:29 | -23.32126 | -44.36744 | 14019 ft | 206 kts | 64° |
| 2026-05-03 23:29 | -23.31520 | -44.35332 | 13937 ft | 206 kts | 64° |
| 2026-05-03 23:29 | -23.30915 | -44.33922 | 13864 ft | 205 kts | 64° |
| 2026-05-03 23:29 | -23.30318 | -44.32535 | 13784 ft | 205 kts | 64° |
| 2026-05-03 23:30 | -23.29714 | -44.31128 | 13709 ft | 205 kts | 64° |
| 2026-05-03 23:30 | -23.29112 | -44.29728 | 13634 ft | 204 kts | 64° |
| 2026-05-03 23:30 | -23.28510 | -44.28328 | 13553 ft | 204 kts | 64° |
| 2026-05-03 23:30 | -23.27908 | -44.26929 | 13488 ft | 204 kts | 64° |
| 2026-05-03 23:31 | -23.27306 | -44.25529 | 13405 ft | 205 kts | 64° |
| 2026-05-03 23:31 | -23.26703 | -44.24128 | 13334 ft | 205 kts | 64° |
| 2026-05-03 23:31 | -23.26100 | -44.22728 | 13256 ft | 205 kts | 64° |
| 2026-05-03 23:31 | -23.25497 | -44.21327 | 13177 ft | 204 kts | 64° |
| 2026-05-03 23:32 | -23.24895 | -44.19931 | 13101 ft | 204 kts | 64° |
| 2026-05-03 23:32 | -23.24303 | -44.18556 | 13030 ft | 203 kts | 64° |
| 2026-05-03 23:32 | -23.23704 | -44.17168 | 12953 ft | 202 kts | 64° |
| 2026-05-03 23:32 | -23.23108 | -44.15785 | 12879 ft | 202 kts | 64° |
| 2026-05-03 23:33 | -23.22512 | -44.14402 | 12806 ft | 202 kts | 64° |
| 2026-05-03 23:33 | -23.21917 | -44.13023 | 12732 ft | 201 kts | 64° |
| 2026-05-03 23:33 | -23.21324 | -44.11648 | 12659 ft | 201 kts | 64° |
| 2026-05-03 23:33 | -23.20731 | -44.10274 | 12585 ft | 200 kts | 64° |
| 2026-05-03 23:34 | -23.20139 | -44.08904 | 12509 ft | 200 kts | 64° |
| 2026-05-03 23:34 | -23.19523 | -44.07552 | 12441 ft | 200 kts | 62° |
| 2026-05-03 23:34 | -23.18910 | -44.06222 | 12364 ft | 199 kts | 64° |
| 2026-05-03 23:34 | -23.18301 | -44.04865 | 12298 ft | 200 kts | 63° |
| 2026-05-03 23:35 | -23.17680 | -44.03508 | 12214 ft | 201 kts | 63° |
| 2026-05-03 23:35 | -23.17056 | -44.02154 | 12141 ft | 200 kts | 63° |
| 2026-05-03 23:35 | -23.16437 | -44.00808 | 12066 ft | 199 kts | 63° |
| 2026-05-03 23:35 | -23.15821 | -43.99465 | 11994 ft | 198 kts | 64° |
| 2026-05-03 23:36 | -23.15258 | -43.98098 | 11924 ft | 198 kts | 64° |
| 2026-05-03 23:36 | -23.14667 | -43.96749 | 11815 ft | 199 kts | 64° |
| 2026-05-03 23:36 | -23.14075 | -43.95382 | 11623 ft | 200 kts | 65° |
| 2026-05-03 23:36 | -23.13496 | -43.94027 | 11429 ft | 200 kts | 65° |
| 2026-05-03 23:37 | -23.12912 | -43.92657 | 11241 ft | 200 kts | 65° |
| 2026-05-03 23:37 | -23.12327 | -43.91290 | 11051 ft | 199 kts | 65° |
| 2026-05-03 23:37 | -23.11744 | -43.89926 | 10863 ft | 199 kts | 65° |
| 2026-05-03 23:37 | -23.11161 | -43.88564 | 10680 ft | 198 kts | 65° |
| 2026-05-03 23:38 | -23.10582 | -43.87210 | 10486 ft | 198 kts | 65° |
| 2026-05-03 23:38 | -23.10003 | -43.85859 | 10302 ft | 197 kts | 65° |
| 2026-05-03 23:38 | -23.09426 | -43.84511 | 10118 ft | 196 kts | 65° |
| 2026-05-03 23:38 | -23.08860 | -43.83189 | 9912 ft | 195 kts | 65° |
| 2026-05-03 23:39 | -23.08287 | -43.81853 | 9711 ft | 195 kts | 65° |
| 2026-05-03 23:39 | -23.07717 | -43.80523 | 9507 ft | 194 kts | 65° |
| 2026-05-03 23:39 | -23.07146 | -43.79192 | 9303 ft | 194 kts | 65° |
| 2026-05-03 23:39 | -23.06577 | -43.77864 | 9093 ft | 194 kts | 65° |
| 2026-05-03 23:40 | -23.06009 | -43.76540 | 8902 ft | 193 kts | 65° |
| 2026-05-03 23:40 | -23.05442 | -43.75218 | 8703 ft | 193 kts | 65° |
| 2026-05-03 23:40 | -23.04874 | -43.73895 | 8503 ft | 193 kts | 65° |
| 2026-05-03 23:40 | -23.04310 | -43.72581 | 8306 ft | 192 kts | 65° |
| 2026-05-03 23:41 | -23.03756 | -43.71291 | 8113 ft | 191 kts | 66° |
| 2026-05-03 23:41 | -23.03196 | -43.69987 | 7911 ft | 190 kts | 66° |
| 2026-05-03 23:41 | -23.02634 | -43.68693 | 7721 ft | 189 kts | 65° |
| 2026-05-03 23:41 | -23.02069 | -43.67407 | 7538 ft | 189 kts | 65° |
| 2026-05-03 23:42 | -23.01505 | -43.66120 | 7342 ft | 189 kts | 66° |
| 2026-05-03 23:42 | -23.00943 | -43.64835 | 7152 ft | 188 kts | 66° |
| 2026-05-03 23:42 | -23.00409 | -43.63555 | 7019 ft | 184 kts | 73° |
| 2026-05-03 23:42 | -23.00259 | -43.62405 | 6965 ft | 175 kts | 95° |
| 2026-05-03 23:43 | -23.00495 | -43.61170 | 7000 ft | 163 kts | 116° |
| 2026-05-03 23:43 | -23.00934 | -43.60057 | 7002 ft | 159 kts | 116° |
| 2026-05-03 23:43 | -23.01348 | -43.58974 | 7005 ft | 156 kts | 116° |
| 2026-05-03 23:43 | -23.01764 | -43.57892 | 7003 ft | 155 kts | 116° |
| 2026-05-03 23:44 | -23.02178 | -43.56819 | 7004 ft | 153 kts | 117° |
| 2026-05-03 23:44 | -23.02589 | -43.55755 | 7005 ft | 153 kts | 116° |
| 2026-05-03 23:44 | -23.03027 | -43.54615 | 6992 ft | 151 kts | 117° |
| 2026-05-03 23:44 | -23.03393 | -43.53647 | 6994 ft | 148 kts | 120° |
| 2026-05-03 23:45 | -23.03733 | -43.52778 | 6997 ft | 148 kts | 116° |
| 2026-05-03 23:45 | -23.04158 | -43.51756 | 6996 ft | 149 kts | 121° |
| 2026-05-03 23:45 | -23.04604 | -43.50755 | 6994 ft | 150 kts | 119° |
| 2026-05-03 23:45 | -23.05053 | -43.49734 | 6996 ft | 150 kts | 119° |
| 2026-05-03 23:46 | -23.05504 | -43.48708 | 6994 ft | 150 kts | 119° |
| 2026-05-03 23:46 | -23.05953 | -43.47686 | 6996 ft | 150 kts | 119° |
| 2026-05-03 23:46 | -23.06411 | -43.46643 | 6885 ft | 156 kts | 119° |
| 2026-05-03 23:46 | -23.06884 | -43.45563 | 6768 ft | 161 kts | 119° |
| 2026-05-03 23:47 | -23.07368 | -43.44457 | 6650 ft | 164 kts | 119° |
| 2026-05-03 23:47 | -23.07862 | -43.43328 | 6532 ft | 167 kts | 118° |
| 2026-05-03 23:47 | -23.08363 | -43.42182 | 6407 ft | 169 kts | 118° |
| 2026-05-03 23:47 | -23.08871 | -43.41020 | 6285 ft | 171 kts | 119° |
| 2026-05-03 23:48 | -23.09373 | -43.39871 | 6157 ft | 170 kts | 119° |
| 2026-05-03 23:48 | -23.09877 | -43.38717 | 6028 ft | 168 kts | 118° |
| 2026-05-03 23:48 | -23.10378 | -43.37573 | 5890 ft | 167 kts | 118° |
| 2026-05-03 23:48 | -23.10878 | -43.36429 | 5745 ft | 168 kts | 118° |
| 2026-05-03 23:49 | -23.11380 | -43.35281 | 5598 ft | 169 kts | 118° |
| 2026-05-03 23:49 | -23.11884 | -43.34127 | 5450 ft | 169 kts | 118° |
| 2026-05-03 23:49 | -23.12388 | -43.32972 | 5306 ft | 169 kts | 118° |
| 2026-05-03 23:49 | -23.12894 | -43.31813 | 5162 ft | 171 kts | 118° |
| 2026-05-03 23:50 | -23.13406 | -43.30641 | 5019 ft | 173 kts | 118° |
| 2026-05-03 23:50 | -23.13921 | -43.29460 | 4870 ft | 173 kts | 118° |
| 2026-05-03 23:50 | -23.14429 | -43.28295 | 4723 ft | 173 kts | 118° |
| 2026-05-03 23:50 | -23.14946 | -43.27110 | 4580 ft | 175 kts | 118° |
| 2026-05-03 23:51 | -23.15472 | -43.25904 | 4431 ft | 178 kts | 119° |
| 2026-05-03 23:51 | -23.16005 | -43.24683 | 4280 ft | 179 kts | 118° |
| 2026-05-03 23:51 | -23.16536 | -43.23462 | 4134 ft | 179 kts | 119° |
| 2026-05-03 23:51 | -23.17063 | -43.22255 | 4033 ft | 173 kts | 119° |
| 2026-05-03 23:52 | -23.17554 | -43.21118 | 4027 ft | 160 kts | 119° |
| 2026-05-03 23:52 | -23.18021 | -43.20046 | 4021 ft | 154 kts | 120° |
| 2026-05-03 23:52 | -23.18471 | -43.19014 | 4022 ft | 148 kts | 120° |
| 2026-05-03 23:52 | -23.18902 | -43.18028 | 4021 ft | 145 kts | 120° |
| 2026-05-03 23:53 | -23.19338 | -43.17050 | 4019 ft | 143 kts | 120° |
| 2026-05-03 23:53 | -23.19769 | -43.16078 | 4018 ft | 143 kts | 120° |
| 2026-05-03 23:53 | -23.20194 | -43.15105 | 4016 ft | 142 kts | 120° |
| 2026-05-03 23:53 | -23.20612 | -43.14145 | 4018 ft | 139 kts | 120° |
| 2026-05-03 23:54 | -23.21024 | -43.13197 | 4016 ft | 138 kts | 119° |
| 2026-05-03 23:54 | -23.21436 | -43.12263 | 4016 ft | 137 kts | 120° |
| 2026-05-03 23:54 | -23.21847 | -43.11327 | 4019 ft | 137 kts | 120° |
| 2026-05-03 23:54 | -23.22259 | -43.10390 | 4017 ft | 137 kts | 120° |
| 2026-05-03 23:55 | -23.22666 | -43.09450 | 4015 ft | 138 kts | 120° |
| 2026-05-03 23:55 | -23.23071 | -43.08513 | 4018 ft | 137 kts | 120° |
| 2026-05-03 23:55 | -23.23466 | -43.07584 | 4015 ft | 136 kts | 119° |
| 2026-05-03 23:55 | -23.23869 | -43.06652 | 4017 ft | 136 kts | 120° |
| 2026-05-03 23:56 | -23.24268 | -43.05718 | 4013 ft | 136 kts | 120° |
| 2026-05-03 23:56 | -23.24667 | -43.04777 | 4014 ft | 139 kts | 117° |
| 2026-05-03 23:56 | -23.24621 | -43.03722 | 4017 ft | 150 kts | 64° |
| 2026-05-03 23:56 | -23.23848 | -43.02932 | 4020 ft | 156 kts | 37° |
| 2026-05-03 23:57 | -23.22961 | -43.02237 | 4018 ft | 159 kts | 38° |
| 2026-05-03 23:57 | -23.22056 | -43.01560 | 4018 ft | 161 kts | 37° |
| 2026-05-03 23:57 | -23.21127 | -43.00862 | 4013 ft | 164 kts | 37° |
| 2026-05-03 23:57 | -23.20190 | -43.00154 | 4016 ft | 164 kts | 37° |
| 2026-05-03 23:58 | -23.19250 | -42.99446 | 4019 ft | 165 kts | 37° |
| 2026-05-03 23:58 | -23.18305 | -42.98736 | 4017 ft | 166 kts | 37° |
| 2026-05-03 23:58 | -23.17354 | -42.98026 | 4001 ft | 166 kts | 37° |
| 2026-05-03 23:58 | -23.16386 | -42.97299 | 3908 ft | 172 kts | 37° |
| 2026-05-03 23:59 | -23.15402 | -42.96559 | 3808 ft | 176 kts | 36° |
| 2026-05-03 23:59 | -23.14220 | -42.96193 | 3707 ft | 183 kts | 355° |
| 2026-05-03 23:59 | -23.13090 | -42.96765 | 3597 ft | 181 kts | 312° |
| 2026-05-03 23:59 | -23.12601 | -42.97968 | 3502 ft | 175 kts | 271° |
| 2026-05-04 00:00 | -23.12488 | -42.99283 | 3482 ft | 172 kts | 277° |
| 2026-05-04 00:00 | -23.12202 | -43.00520 | 3497 ft | 167 kts | 282° |
| 2026-05-04 00:00 | -23.11873 | -43.01723 | 3501 ft | 165 kts | 282° |
| 2026-05-04 00:00 | -23.11551 | -43.02894 | 3503 ft | 163 kts | 282° |
| 2026-05-04 00:01 | -23.11231 | -43.04068 | 3505 ft | 161 kts | 282° |
| 2026-05-04 00:01 | -23.10915 | -43.05230 | 3501 ft | 160 kts | 282° |
| 2026-05-04 00:01 | -23.10599 | -43.06387 | 3503 ft | 160 kts | 283° |
| 2026-05-04 00:01 | -23.10285 | -43.07540 | 3500 ft | 158 kts | 282° |
| 2026-05-04 00:02 | -23.09974 | -43.08683 | 3496 ft | 157 kts | 283° |
| 2026-05-04 00:02 | -23.09640 | -43.09816 | 3499 ft | 160 kts | 292° |
| 2026-05-04 00:02 | -23.08941 | -43.10756 | 3500 ft | 163 kts | 320° |
| 2026-05-04 00:02 | -23.07916 | -43.11293 | 3435 ft | 173 kts | 347° |
| 2026-05-04 00:03 | -23.06700 | -43.11501 | 3323 ft | 180 kts | 351° |
| 2026-05-04 00:03 | -23.05444 | -43.11714 | 3199 ft | 185 kts | 350° |
| 2026-05-04 00:03 | -23.04166 | -43.11937 | 3077 ft | 188 kts | 351° |
| 2026-05-04 00:03 | -23.02868 | -43.12164 | 2949 ft | 188 kts | 350° |
| 2026-05-04 00:04 | -23.01590 | -43.12388 | 2820 ft | 184 kts | 350° |
| 2026-05-04 00:04 | -23.00344 | -43.12611 | 2700 ft | 179 kts | 350° |
| 2026-05-04 00:04 | -22.99128 | -43.12839 | 2571 ft | 175 kts | 349° |
| 2026-05-04 00:04 | -22.97934 | -43.13061 | 2441 ft | 173 kts | 349° |
| 2026-05-04 00:05 | -22.96765 | -43.13277 | 2312 ft | 172 kts | 349° |
| 2026-05-04 00:05 | -22.95620 | -43.13497 | 2198 ft | 162 kts | 346° |
| 2026-05-04 00:05 | -22.94644 | -43.14056 | 1666 ft | 162 kts | 317° |
| 2026-05-04 00:05 | -22.93982 | -43.15068 | 879 ft | 156 kts | 293° |
| 2026-05-04 00:06 | -22.93590 | -43.16082 | 624 ft | 134 kts | 302° |
| 2026-05-04 00:06 | -22.92883 | -43.16464 | 584 ft | 111 kts | 2° |
| 2026-05-04 00:06 | -22.92126 | -43.16229 | 168 ft | 116 kts | 9° |
| 2026-05-04 00:06 | -22.91401 | -43.16274 | 41 ft | 95 kts | 356° |
| 2026-05-04 00:07 | -22.90834 | -43.16310 | 15 ft | 57 kts | 8° |
| 2026-05-04 00:07 | -22.90701 | -43.16307 | 15 ft | 6 kts | 354° |
| 2026-05-04 00:07 | -22.90635 | -43.16310 | 15 ft | 7 kts | 1° |
| 2026-05-04 00:07 | -22.90558 | -43.16316 | 15 ft | 10 kts | 2° |
| 2026-05-04 00:08 | -22.90508 | -43.16331 | 15 ft | 7 kts | 318° |
| 2026-05-04 00:08 | -22.90494 | -43.16406 | 14 ft | 9 kts | 268° |
| 2026-05-04 00:08 | -22.90496 | -43.16464 | 13 ft | 8 kts | 269° |
| 2026-05-04 00:08 | -22.90501 | -43.16520 | 13 ft | 6 kts | 267° |
| 2026-05-04 00:09 | -22.90523 | -43.16557 | 13 ft | 6 kts | 200° |
| 2026-05-04 00:09 | -22.90567 | -43.16557 | 13 ft | 7 kts | 177° |
| 2026-05-04 00:09 | -22.90614 | -43.16554 | 13 ft | 5 kts | 177° |
| 2026-05-04 00:09 | -22.90630 | -43.16537 | 13 ft | 4 kts | 116° |
| 2026-05-04 00:10 | -22.90640 | -43.16506 | 13 ft | 5 kts | 92° |
| 2026-05-04 00:10 | -22.90654 | -43.16485 | 13 ft | 4 kts | 181° |
| 2026-05-04 00:10 | -22.90669 | -43.16485 | 13 ft | 0 kts | 177° |